createdAt,value
2019-01-20T00:00:51.797Z,100621.75
2019-01-20T00:05:00.251Z,100620.16
2019-01-20T00:09:10.747Z,100609.77
2019-01-20T00:13:18.903Z,100614.78
2019-01-20T00:17:30.375Z,100616.41
2019-01-20T00:21:38.164Z,100619.72
2019-01-20T00:25:45.888Z,100623.22
2019-01-20T00:29:54.030Z,100624.17
2019-01-20T00:34:02.138Z,100623.31
2019-01-20T00:38:10.532Z,100627.67
2019-01-20T00:42:19.184Z,100632.77
2019-01-20T00:46:27.198Z,100619.08
2019-01-20T00:50:35.106Z,100614.84
2019-01-20T00:54:43.032Z,100618.06
2019-01-20T00:58:51.065Z,100609.71
2019-01-20T01:02:59.550Z,100611.27
2019-01-20T01:07:09.822Z,100604.45
2019-01-20T01:11:17.578Z,100600.62
2019-01-20T01:15:25.519Z,100588.03
2019-01-20T01:19:33.231Z,100584.44
2019-01-20T01:23:41.367Z,100575.22
2019-01-20T01:27:49.488Z,100580.16
2019-01-20T01:31:57.704Z,100568.77
2019-01-20T01:36:05.964Z,100566.13
2019-01-20T01:40:15.028Z,100553.96
2019-01-20T01:44:22.935Z,100546.03
2019-01-20T01:48:32.014Z,100545.36
2019-01-20T01:52:40.278Z,100548.09
2019-01-20T01:56:48.207Z,100546.45
2019-01-20T02:00:56.219Z,100540.53
2019-01-20T02:05:04.955Z,100547.63
2019-01-20T02:09:13.503Z,100544.95
2019-01-20T02:13:21.222Z,100542.67
2019-01-20T02:17:29.224Z,100546.72
2019-01-20T02:21:37.383Z,100541.63
2019-01-20T02:25:45.444Z,100545.41
2019-01-20T02:29:53.466Z,100542.03
2019-01-20T02:34:01.382Z,100537.98
2019-01-20T02:38:09.389Z,100529.83
2019-01-20T02:42:17.397Z,100522.77
2019-01-20T02:46:25.447Z,100512.66
2019-01-20T02:50:33.473Z,100503.81
2019-01-20T02:54:41.847Z,100507.77
2019-01-20T02:58:49.757Z,100502.85
2019-01-20T03:02:57.774Z,100496.52
2019-01-20T03:07:05.945Z,100492.73
2019-01-20T03:11:13.980Z,100491.06
2019-01-20T03:15:22.019Z,100484.65
2019-01-20T03:19:29.772Z,100488.61
2019-01-20T03:23:37.402Z,100480.14
2019-01-20T03:27:45.910Z,100483.53
2019-01-20T03:31:54.031Z,100477.59
2019-01-20T03:36:01.834Z,100479.14
2019-01-20T03:40:11.624Z,100481.34
2019-01-20T03:44:19.530Z,100482.21
2019-01-20T03:48:27.273Z,100477.98
2019-01-20T03:52:35.009Z,100476.11
2019-01-20T03:56:43.024Z,100476.60
2019-01-20T04:00:51.138Z,100469.92
2019-01-20T04:04:59.562Z,100476.33
2019-01-20T04:09:08.886Z,100470.03
2019-01-20T04:13:17.281Z,100467.61
2019-01-20T04:17:25.297Z,100459.69
2019-01-20T04:21:33.014Z,100461.10
2019-01-20T04:25:40.639Z,100469.89
2019-01-20T04:29:48.551Z,100477.40
2019-01-20T04:33:57.015Z,100481.20
2019-01-20T04:38:05.091Z,100470.82
2019-01-20T04:42:14.130Z,100461.56
2019-01-20T04:46:21.838Z,100467.34
2019-01-20T04:50:30.079Z,100456.45
2019-01-20T04:54:38.467Z,100458.13
2019-01-20T04:58:46.834Z,100450.80
2019-01-20T05:02:54.774Z,100443.99
2019-01-20T05:07:02.493Z,100447.09
2019-01-20T05:11:10.123Z,100433.52
2019-01-20T05:15:19.851Z,100427.97
2019-01-20T05:19:27.792Z,100429.33
2019-01-20T05:23:35.845Z,100425.88
2019-01-20T05:27:43.978Z,100424.70
2019-01-20T05:31:51.901Z,100417.30
2019-01-20T05:35:59.416Z,100414.95
2019-01-20T05:40:08.638Z,100410.02
2019-01-20T05:44:16.548Z,100406.91
2019-01-20T05:48:24.571Z,100408.97
2019-01-20T05:52:32.217Z,100413.63
2019-01-20T05:56:40.412Z,100416.27
2019-01-20T06:00:48.208Z,100417.75
2019-01-20T06:04:55.924Z,100412.11
2019-01-20T06:09:05.248Z,100422.19
2019-01-20T06:13:13.068Z,100423.73
2019-01-20T06:17:20.801Z,100420.33
2019-01-20T06:21:28.739Z,100417.42
2019-01-20T06:25:36.764Z,100420.75
2019-01-20T06:29:44.570Z,100415.10
2019-01-20T06:33:52.191Z,100422.02
2019-01-20T06:38:00.693Z,100421.42
2019-01-20T06:42:08.752Z,100419.63
2019-01-20T06:46:16.476Z,100419.05
2019-01-20T06:50:25.392Z,100418.27
2019-01-20T06:54:33.214Z,100422.59
2019-01-20T06:58:41.620Z,100424.28
2019-01-20T07:02:50.059Z,100421.27
2019-01-20T07:06:57.885Z,100423.61
2019-01-20T07:11:05.946Z,100428.29
2019-01-20T07:15:19.633Z,100421.98
2019-01-20T07:19:28.166Z,100423.08
2019-01-20T07:23:36.104Z,100422.02
2019-01-20T07:27:44.209Z,100414.80
2019-01-20T07:31:52.072Z,100417.29
2019-01-20T07:36:00.094Z,100411.03
2019-01-20T07:40:10.147Z,100414.09
2019-01-20T07:44:18.069Z,100411.01
2019-01-20T07:48:26.275Z,100415.22
2019-01-20T07:52:34.804Z,100412.02
2019-01-20T07:56:43.021Z,100410.19
2019-01-20T08:00:51.119Z,100415.98
2019-01-20T08:04:58.911Z,100411.87
2019-01-20T08:09:08.763Z,100411.41
2019-01-20T08:13:24.023Z,100422.89
2019-01-20T08:17:26.241Z,100420.50
2019-01-20T08:21:34.273Z,100409.15
2019-01-20T08:25:42.712Z,100410.65
2019-01-20T08:29:51.126Z,100413.36
2019-01-20T08:33:59.160Z,100410.34
2019-01-20T08:38:07.569Z,100408.93
2019-01-20T08:42:15.826Z,100409.63
2019-01-20T08:46:55.028Z,100404.19
2019-01-20T08:51:03.042Z,100391.42
2019-01-20T08:55:12.020Z,100383.88
2019-01-20T08:59:20.194Z,100388.16
2019-01-20T09:03:28.445Z,100385.56
2019-01-20T09:07:36.156Z,100376.06
2019-01-20T09:11:44.177Z,100374.88
2019-01-20T09:15:53.598Z,100368.38
2019-01-20T09:20:02.008Z,100363.34
2019-01-20T09:24:10.445Z,100357.33
2019-01-20T09:28:18.766Z,100357.39
2019-01-20T09:32:26.706Z,100354.95
2019-01-20T09:36:34.799Z,100349.65
2019-01-20T09:40:42.766Z,100333.42
2019-01-20T09:44:51.074Z,100329.70
2019-01-20T09:48:59.212Z,100325.67
2019-01-20T09:53:07.588Z,100312.28
2019-01-20T09:57:15.577Z,100308.33
2019-01-20T10:01:23.447Z,100300.17
2019-01-20T10:05:31.196Z,100303.42
2019-01-20T10:09:40.141Z,100292.48
2019-01-20T10:13:54.609Z,100282.85
2019-01-20T10:17:57.862Z,100283.82
2019-01-20T10:22:06.106Z,100275.05
2019-01-20T10:26:14.148Z,100266.25
2019-01-20T10:30:24.993Z,100267.58
2019-01-20T10:34:33.740Z,100264.72
2019-01-20T10:38:41.755Z,100256.88
2019-01-20T10:42:49.908Z,100250.73
2019-01-20T10:46:57.900Z,100247.12
2019-01-20T10:51:06.717Z,100233.41
2019-01-20T10:55:14.744Z,100223.78
2019-01-20T10:59:22.808Z,100218.63
2019-01-20T11:03:30.859Z,100211.91
2019-01-20T11:07:41.554Z,100217.09
2019-01-20T11:11:51.393Z,100208.92
2019-01-20T11:15:59.371Z,100203.14
2019-01-20T11:20:10.954Z,100202.16
2019-01-20T11:24:18.787Z,100195.30
2019-01-20T11:28:26.526Z,100187.20
2019-01-20T11:32:34.593Z,100178.32
2019-01-20T11:36:42.347Z,100177.11
2019-01-20T11:40:52.151Z,100178.23
2019-01-20T11:44:59.693Z,100180.14
2019-01-20T11:49:07.450Z,100176.04
2019-01-20T11:53:15.524Z,100177.35
2019-01-20T11:57:23.584Z,100161.61
2019-01-20T12:01:32.282Z,100157.14
2019-01-20T12:05:42.460Z,100142.33
2019-01-20T12:09:52.677Z,100142.72
2019-01-20T12:14:00.614Z,100139.33
2019-01-20T12:18:08.612Z,100137.40
2019-01-20T12:22:18.666Z,100133.67
2019-01-20T12:26:26.590Z,100135.59
2019-01-20T12:30:36.379Z,100127.55
2019-01-20T12:34:44.505Z,100125.61
2019-01-20T12:38:52.559Z,100112.81
2019-01-20T12:43:00.846Z,100117.30
2019-01-20T12:47:08.705Z,100104.19
2019-01-20T12:51:16.757Z,100101.05
2019-01-20T12:55:24.534Z,100096.83
2019-01-20T12:59:32.275Z,100097.80
2019-01-20T13:03:41.418Z,100089.36
2019-01-20T13:07:49.480Z,100086.23
2019-01-20T13:11:58.539Z,100085.88
2019-01-20T13:16:08.585Z,100079.63
2019-01-20T13:20:18.875Z,100072.52
2019-01-20T13:24:26.631Z,100078.19
2019-01-20T13:28:35.785Z,100078.30
2019-01-20T13:32:44.127Z,100082.62
2019-01-20T13:36:52.360Z,100078.42
2019-01-20T13:41:07.036Z,100076.62
2019-01-20T13:45:15.049Z,100071.68
2019-01-20T13:49:23.114Z,100070.83
2019-01-20T13:53:31.347Z,100070.00
2019-01-20T13:57:39.906Z,100063.14
2019-01-20T14:01:47.952Z,100062.06
2019-01-20T14:05:55.883Z,100059.41
2019-01-20T14:10:05.348Z,100051.72
2019-01-20T14:14:14.330Z,100054.11
2019-01-20T14:18:22.027Z,100046.19
2019-01-20T14:22:32.867Z,100046.66
2019-01-20T14:26:41.081Z,100038.60
2019-01-20T14:30:48.754Z,100032.09
2019-01-20T14:34:56.820Z,100035.45
2019-01-20T14:39:08.341Z,100032.08
2019-01-20T14:43:16.401Z,100020.77
2019-01-20T14:47:24.727Z,100018.12
2019-01-20T14:51:32.655Z,100011.13
2019-01-20T14:55:40.547Z,100008.03
2019-01-20T14:59:48.284Z,99997.80
2019-01-20T15:03:55.951Z,99996.73
2019-01-20T15:08:04.723Z,99989.88
2019-01-20T15:12:13.112Z,99991.20
2019-01-20T15:16:20.854Z,99996.34
2019-01-20T15:20:28.600Z,99998.53
2019-01-20T15:24:36.365Z,99993.23
2019-01-20T15:28:44.420Z,99989.14
2019-01-20T15:32:52.713Z,99992.17
2019-01-20T15:37:00.727Z,99986.97
2019-01-20T15:41:09.590Z,99989.14
2019-01-20T15:45:18.617Z,99995.03
2019-01-20T15:49:26.512Z,99998.06
2019-01-20T15:53:34.888Z,99988.77
2019-01-20T15:57:43.493Z,99984.34
2019-01-20T16:01:51.982Z,99978.91
2019-01-20T16:05:59.931Z,99980.72
2019-01-20T16:10:09.439Z,99989.02
2019-01-20T16:14:17.227Z,99990.44
2019-01-20T16:18:25.310Z,99980.14
2019-01-20T16:22:33.693Z,99973.38
2019-01-20T16:26:42.454Z,99979.41
2019-01-20T16:30:50.104Z,99980.14
2019-01-20T16:34:57.907Z,99984.70
2019-01-20T16:39:08.499Z,99979.05
2019-01-20T16:43:16.736Z,99981.17
2019-01-20T16:47:25.036Z,99989.17
2019-01-20T16:51:34.754Z,99988.19
2019-01-20T16:55:43.227Z,99985.81
2019-01-20T16:59:51.707Z,99975.45
2019-01-20T17:03:59.940Z,99976.42
2019-01-20T17:08:08.037Z,99973.42
2019-01-20T17:12:15.883Z,99974.61
2019-01-20T17:16:24.393Z,99964.96
2019-01-20T17:20:33.049Z,99970.39
2019-01-20T17:24:40.890Z,99980.70
2019-01-20T17:28:49.730Z,99979.43
2019-01-20T17:32:57.403Z,99980.23
2019-01-20T17:37:05.211Z,99978.58
2019-01-20T17:41:13.616Z,99968.22
2019-01-20T17:45:26.689Z,99969.66
2019-01-20T17:49:34.308Z,99969.84
2019-01-20T17:53:42.234Z,99972.79
2019-01-20T17:57:50.251Z,99977.20
2019-01-20T18:01:58.280Z,99967.70
2019-01-20T18:06:06.438Z,99971.09
2019-01-20T18:10:15.683Z,99970.00
2019-01-20T18:14:23.805Z,99965.44
2019-01-20T18:18:32.524Z,99959.41
2019-01-20T18:22:41.042Z,99967.70
2019-01-20T18:26:51.114Z,99969.33
2019-01-20T18:31:01.277Z,99960.69
2019-01-20T18:35:10.023Z,99966.26
2019-01-20T18:39:18.077Z,99966.25
2019-01-20T18:43:27.876Z,99960.81
2019-01-20T18:47:35.864Z,99960.02
2019-01-20T18:51:43.733Z,99963.14
2019-01-20T18:55:51.855Z,99957.19
2019-01-20T18:59:59.537Z,99962.97
2019-01-20T19:04:07.615Z,99964.87
2019-01-20T19:08:16.696Z,99969.30
2019-01-20T19:12:28.313Z,99964.55
2019-01-20T19:16:35.745Z,99966.48
2019-01-20T19:20:43.283Z,99960.70
2019-01-20T19:24:51.701Z,99957.66
2019-01-20T19:29:03.084Z,99963.81
2019-01-20T19:33:09.406Z,99953.91
2019-01-20T19:37:17.175Z,99953.80
2019-01-20T19:41:25.262Z,99956.63
2019-01-20T19:45:35.266Z,99955.70
2019-01-20T19:49:43.368Z,99947.91
2019-01-20T19:53:51.481Z,99952.65
2019-01-20T19:57:59.166Z,99947.31
2019-01-20T20:02:07.133Z,99955.93
2019-01-20T20:06:15.178Z,99949.98
2019-01-20T20:10:24.791Z,99948.95
2019-01-20T20:14:32.341Z,99946.31
2019-01-20T20:18:42.193Z,99949.13
2019-01-20T20:22:50.566Z,99953.56
2019-01-20T20:26:58.670Z,99956.91
2019-01-20T20:31:07.725Z,99947.23
2019-01-20T20:35:17.433Z,99951.28
2019-01-20T20:39:25.933Z,99951.05
2019-01-20T20:43:33.554Z,99948.80
2019-01-20T20:47:41.642Z,99948.56
2019-01-20T20:51:49.713Z,99948.27
2019-01-20T20:55:58.839Z,99949.87
2019-01-20T21:00:12.354Z,99946.63
2019-01-20T21:04:20.157Z,99946.67
2019-01-20T21:08:27.902Z,99956.52
2019-01-20T21:12:35.785Z,99952.82
2019-01-20T21:16:43.813Z,99953.68
2019-01-20T21:20:52.718Z,99951.89
2019-01-20T21:25:01.026Z,99950.61
2019-01-20T21:29:09.042Z,99947.92
2019-01-20T21:33:17.088Z,99951.14
2019-01-20T21:37:25.125Z,99951.73
2019-01-20T21:41:33.152Z,99945.85
2019-01-20T21:45:41.304Z,99951.91
2019-01-20T21:49:49.129Z,99955.24
2019-01-20T21:53:57.088Z,99951.67
2019-01-20T21:58:05.531Z,99951.03
2019-01-20T22:02:13.555Z,99953.15
2019-01-20T22:06:21.443Z,99958.95
2019-01-20T22:10:29.365Z,99960.38
2019-01-20T22:14:37.183Z,99953.98
2019-01-20T22:18:45.205Z,99952.42
2019-01-20T22:22:53.935Z,99945.95
2019-01-20T22:27:01.858Z,99934.33
2019-01-20T22:31:09.598Z,99938.58
2019-01-20T22:35:17.743Z,99932.66
2019-01-20T22:39:26.473Z,99928.41
2019-01-20T22:43:34.213Z,99932.22
2019-01-20T22:47:42.362Z,99924.41
2019-01-20T22:51:50.382Z,99925.70
2019-01-20T22:55:57.997Z,99927.84
2019-01-20T23:00:15.054Z,99931.17
2019-01-20T23:04:22.762Z,99932.20
2019-01-20T23:08:31.351Z,99939.83
2019-01-20T23:12:39.452Z,99950.95
2019-01-20T23:16:47.168Z,99944.83
2019-01-20T23:20:54.986Z,99946.75
2019-01-20T23:25:03.127Z,99942.47
2019-01-20T23:29:10.898Z,99941.00
2019-01-20T23:33:18.933Z,99929.03
2019-01-20T23:37:27.004Z,99925.24
2019-01-20T23:41:34.921Z,99916.51
2019-01-20T23:45:42.538Z,99923.73
2019-01-20T23:49:50.602Z,99921.70
2019-01-20T23:53:58.325Z,99921.65
2019-01-20T23:58:06.396Z,99928.86
